Strona główna
METAR-TAF:

METAR-TAF

Lotnisko :

Gove, Australia

Szerokość geograficzna: 12-16-12S, Długość geograficzna: 136-49-06E, wysokość: 62 m

Aktualna obserwacja pogody

Raport powstał 42 minut temu, godzina 06:00 UTC
Wiatr 9 kt od północ
Temperatura 33°C
Wilgotność 49%
Ciśnienie 1008 hPa
Widzialność 10 km lub więcej

METAR: YPGV 170600Z AUTO 01009KT 9999 // NCD 33/21 Q1008

czas: 16:12 (06:42 UTC)

Prognoza

Raport powstał 6 godziny i 21 minut temu, godzina 00:21 UTC
Prognoza ważna od 17 godzina 02 UTC do 17 godzina 14 UTC
Wiatr 6 kt od północno-północny wschód
Widzialność 10 km lub więcej
Rozproszone chmury na wysokości 3000 ft

TAF: YPGV 170021Z 1702/1714 02006KT 9999 SCT030

Obserwacja i prognoza pogody dla ponad 4000 lotnisk (raport METAR i TAF).

Dostępne stacje oznaczono żółtymi i czerwonymi punktami na mapie.

Najedź kursorem aby zobaczyć nazwę stacji.

Kliknij aby zobaczyć obserwacje i prognozy pogody.

Aby zmienić mapę: kliknij na zielony przycisk z czarnym krzyżykiem, aby powiększyć; na zielony przycisk z myślnikiem, aby pomniejszyć; na zielone strzałki, aby przejść do map sąsiednich.


METAR-TAF: